Time;durP1;ratioP1;P1;durP2;ratioP2;P2;SDS_P1;SDS_P2;PMS_P1;PMS_P2;Temp;Humidity;BMP_temperature;BMP_pressure;BME280_temperature;BME280_humidity;BME280_pressure;Samples;Min_cycle;Max_cycle;Signal;HPM_P1;HPM_P2
2020/12/20 00:00:29;;;;;;;25.80;16.47;;;4.00;99.90;;;;;;5056082;28;20222;-59
2020/12/20 00:02:56;;;;;;;28.00;18.90;;;4.00;99.90;;;;;;5057077;28;20262;-56
2020/12/20 00:05:23;;;;;;;29.17;18.40;;;4.00;99.90;;;;;;5053881;28;20236;-59
2020/12/20 00:07:49;;;;;;;26.63;18.50;;;4.00;99.90;;;;;;5057244;28;20424;-54
2020/12/20 00:10:18;;;;;;;27.30;19.60;;;4.00;99.90;;;;;;5051992;28;20482;-57
2020/12/20 00:12:44;;;;;;;26.83;19.10;;;3.90;99.90;;;;;;5072339;28;20788;-58
2020/12/20 00:15:11;;;;;;;29.43;18.90;;;4.00;99.90;;;;;;5056647;28;20509;-54
2020/12/20 00:17:37;;;;;;;29.70;18.80;;;4.00;99.90;;;;;;5055603;28;20437;-57
2020/12/20 00:20:05;;;;;;;32.10;19.63;;;4.00;99.90;;;;;;5057117;28;20455;-57
2020/12/20 00:22:31;;;;;;;28.30;18.93;;;4.00;99.90;;;;;;5054557;28;20352;-54
2020/12/20 00:24:56;;;;;;;27.70;17.83;;;4.00;99.90;;;;;;5056589;28;20473;-59
2020/12/20 00:27:24;;;;;;;37.47;20.07;;;4.00;99.90;;;;;;5039176;28;20208;-60
2020/12/20 00:29:49;;;;;;;27.13;18.73;;;4.00;99.90;;;;;;5050376;28;20182;-59
2020/12/20 00:32:15;;;;;;;30.73;20.27;;;4.00;99.90;;;;;;5053026;28;20450;-54
2020/12/20 00:34:42;;;;;;;26.80;17.97;;;4.00;99.90;;;;;;5055855;28;20435;-54
2020/12/20 00:37:08;;;;;;;29.63;20.37;;;4.00;99.90;;;;;;5055249;28;20288;-53
2020/12/20 00:39:34;;;;;;;25.20;17.20;;;4.00;99.90;;;;;;5054962;28;20449;-58
2020/12/20 00:42:03;;;;;;;27.57;19.80;;;3.90;99.90;;;;;;5055865;28;20581;-54
2020/12/20 00:44:30;;;;;;;27.93;18.60;;;3.90;99.90;;;;;;5056769;28;20803;-59
2020/12/20 00:46:57;;;;;;;31.57;21.50;;;3.90;99.90;;;;;;5043597;28;20475;-54
2020/12/20 00:49:24;;;;;;;29.20;19.50;;;4.00;99.90;;;;;;5036478;28;20424;-57
2020/12/20 00:51:50;;;;;;;29.00;22.67;;;4.00;99.90;;;;;;5045665;28;20430;-53
2020/12/20 00:54:16;;;;;;;29.97;18.53;;;4.00;99.90;;;;;;5071338;28;20862;-55
2020/12/20 00:56:42;;;;;;;30.23;20.13;;;4.00;99.90;;;;;;5054300;28;20526;-54
2020/12/20 00:59:08;;;;;;;28.00;19.73;;;3.90;99.90;;;;;;5055906;28;20453;-54
2020/12/20 01:01:33;;;;;;;28.30;19.30;;;3.90;99.90;;;;;;5054473;28;20922;-57
2020/12/20 01:03:59;;;;;;;30.07;20.30;;;3.90;99.90;;;;;;5054122;28;20210;-58
2020/12/20 01:06:25;;;;;;;31.63;19.90;;;3.90;99.90;;;;;;5055942;28;20208;-58
2020/12/20 01:08:51;;;;;;;33.20;20.73;;;4.00;99.90;;;;;;5059028;28;20550;-58
2020/12/20 01:11:19;;;;;;;27.97;20.87;;;3.90;99.90;;;;;;5053917;28;20176;-54
2020/12/20 01:13:45;;;;;;;31.37;20.43;;;3.90;99.90;;;;;;5070108;28;20475;-56
2020/12/20 01:16:26;;;;;;;29.23;19.63;;;4.00;99.90;;;;;;5055902;28;20454;-57
2020/12/20 01:18:56;;;;;;;31.40;19.93;;;3.90;99.90;;;;;;5056173;28;20531;-58
2020/12/20 01:21:22;;;;;;;28.60;19.60;;;3.90;99.90;;;;;;5039604;28;20435;-59
2020/12/20 01:23:48;;;;;;;27.70;19.20;;;3.90;99.90;;;;;;5035737;28;20481;-56
2020/12/20 01:26:14;;;;;;;30.60;20.83;;;3.90;99.90;;;;;;5052975;28;20270;-54
2020/12/20 01:28:40;;;;;;;27.70;19.70;;;4.00;99.90;;;;;;5055116;28;20516;-59
2020/12/20 01:31:07;;;;;;;29.27;19.57;;;4.00;99.90;;;;;;5053169;28;20521;-54
2020/12/20 01:33:35;;;;;;;31.60;19.40;;;3.90;99.90;;;;;;5055119;28;20178;-58
2020/12/20 01:36:12;;;;;;;25.73;18.53;;;3.90;99.90;;;;;;5055856;28;20452;-53
2020/12/20 01:38:38;;;;;;;32.57;20.10;;;3.90;99.90;;;;;;5051125;28;20515;-58
2020/12/20 01:41:05;;;;;;;28.73;18.10;;;3.90;99.90;;;;;;5047900;28;20440;-57
2020/12/20 01:43:48;;;;;;;29.97;19.90;;;4.00;99.90;;;;;;5051064;28;20455;-55
2020/12/20 01:46:16;;;;;;;24.97;17.30;;;4.00;99.90;;;;;;5041757;28;20452;-56
2020/12/20 01:48:43;;;;;;;27.27;16.20;;;3.90;99.90;;;;;;5052941;28;20462;-58
2020/12/20 01:51:09;;;;;;;29.67;18.40;;;3.90;99.90;;;;;;5055327;28;20491;-58
2020/12/20 01:53:39;;;;;;;27.20;18.37;;;3.80;99.90;;;;;;5037932;28;20437;-54
2020/12/20 01:56:05;;;;;;;29.27;19.40;;;3.80;99.90;;;;;;5054565;28;20432;-54
2020/12/20 01:58:36;;;;;;;27.63;17.63;;;3.80;99.90;;;;;;5055121;28;20426;-54
2020/12/20 02:01:04;;;;;;;24.70;17.47;;;4.00;99.90;;;;;;5054205;28;20434;-54
2020/12/20 02:03:30;;;;;;;28.27;17.07;;;3.80;99.90;;;;;;5054192;28;20478;-54
2020/12/20 02:05:56;;;;;;;27.93;17.80;;;3.80;99.90;;;;;;5054990;28;20419;-53
2020/12/20 02:08:21;;;;;;;26.87;18.37;;;3.90;99.90;;;;;;5050647;28;20448;-54
2020/12/20 02:11:11;;;;;;;30.17;19.00;;;3.80;99.90;;;;;;5054038;28;20616;-54
2020/12/20 02:13:43;;;;;;;28.60;17.80;;;3.80;99.90;;;;;;5052323;28;20192;-53
2020/12/20 02:16:11;;;;;;;28.97;18.00;;;3.80;99.90;;;;;;5054092;28;20529;-53
2020/12/20 02:18:37;;;;;;;25.27;16.60;;;3.80;99.90;;;;;;5053936;28;20472;-57
2020/12/20 02:21:16;;;;;;;26.77;19.07;;;3.80;99.90;;;;;;5054538;28;20429;-56
2020/12/20 02:23:43;;;;;;;32.83;18.73;;;3.80;99.90;;;;;;5052825;28;20185;-59
2020/12/20 02:26:11;;;;;;;21.40;15.67;;;3.80;99.90;;;;;;5054488;28;20443;-58
2020/12/20 02:28:37;;;;;;;27.97;18.33;;;3.80;99.90;;;;;;5052921;28;20918;-58
2020/12/20 02:31:03;;;;;;;30.37;19.63;;;3.80;99.90;;;;;;5054398;28;20431;-58
2020/12/20 02:33:30;;;;;;;27.93;16.90;;;3.90;99.90;;;;;;5051617;28;20434;-58
2020/12/20 02:35:56;;;;;;;30.17;18.30;;;3.80;99.90;;;;;;5053456;28;20194;-58
2020/12/20 02:38:21;;;;;;;26.80;17.10;;;3.80;99.90;;;;;;5054752;28;20422;-58
2020/12/20 02:40:47;;;;;;;29.53;18.43;;;3.80;99.90;;;;;;5039412;28;20222;-54
2020/12/20 02:43:12;;;;;;;29.53;17.50;;;3.80;99.90;;;;;;5040409;28;20664;-58
2020/12/20 02:45:38;;;;;;;27.10;16.93;;;3.80;99.90;;;;;;5052866;28;20205;-59
2020/12/20 02:48:04;;;;;;;24.37;17.13;;;3.90;99.90;;;;;;5053918;28;20312;-58
2020/12/20 02:50:29;;;;;;;27.00;18.53;;;3.80;99.90;;;;;;5052790;28;20181;-54
2020/12/20 02:52:55;;;;;;;26.67;17.83;;;3.80;99.90;;;;;;5052353;28;20283;-59
2020/12/20 02:55:20;;;;;;;27.40;18.23;;;3.80;99.90;;;;;;5053976;28;20188;-59
2020/12/20 02:57:46;;;;;;;27.13;17.20;;;3.80;99.90;;;;;;5052944;28;20267;-54
2020/12/20 03:00:12;;;;;;;27.60;18.20;;;3.80;99.90;;;;;;5053797;28;20180;-59
2020/12/20 03:02:37;;;;;;;29.10;17.70;;;3.90;99.90;;;;;;5054099;28;20215;-54
2020/12/20 03:05:03;;;;;;;31.27;19.40;;;4.00;99.90;;;;;;5053104;28;20609;-54
2020/12/20 03:07:29;;;;;;;33.47;20.23;;;3.80;99.90;;;;;;5052907;28;20166;-54
2020/12/20 03:09:54;;;;;;;29.67;18.70;;;3.70;99.90;;;;;;5051007;28;20180;-54
2020/12/20 03:12:22;;;;;;;25.17;15.50;;;3.70;99.90;;;;;;5052045;28;20189;-54
2020/12/20 03:14:48;;;;;;;30.10;17.77;;;3.80;99.90;;;;;;5053400;28;20623;-54
2020/12/20 03:17:14;;;;;;;25.30;17.33;;;3.70;99.90;;;;;;5052526;28;20441;-59
2020/12/20 03:19:39;;;;;;;27.90;18.30;;;3.70;99.90;;;;;;5042885;28;20441;-54
2020/12/20 03:22:05;;;;;;;28.00;19.17;;;3.80;99.90;;;;;;5047192;28;20250;-54
2020/12/20 03:24:30;;;;;;;31.53;20.03;;;3.80;99.90;;;;;;5053660;28;20185;-54
2020/12/20 03:26:56;;;;;;;28.10;16.50;;;6.20;99.90;;;;;;5053295;28;20630;-54
2020/12/20 03:29:22;;;;;;;26.47;16.37;;;3.70;99.90;;;;;;5053837;28;20199;-54
2020/12/20 03:31:47;;;;;;;27.33;18.73;;;3.70;99.90;;;;;;5054173;28;20726;-54
2020/12/20 03:34:13;;;;;;;29.70;17.50;;;3.70;99.90;;;;;;5055071;28;20642;-57
2020/12/20 03:36:39;;;;;;;29.03;17.77;;;3.70;99.90;;;;;;5057292;28;20173;-54
2020/12/20 03:39:05;;;;;;;27.17;17.27;;;3.80;99.90;;;;;;5054568;28;20634;-58
2020/12/20 03:41:30;;;;;;;28.33;16.50;;;3.80;99.90;;;;;;5053409;28;20647;-58
2020/12/20 03:43:56;;;;;;;29.77;19.07;;;5.30;99.90;;;;;;5050941;28;20509;-55
2020/12/20 03:46:22;;;;;;;29.23;15.87;;;3.60;99.90;;;;;;5046427;28;20618;-55
2020/12/20 03:48:48;;;;;;;28.13;16.37;;;3.70;99.90;;;;;;5055065;28;20426;-59
2020/12/20 03:51:13;;;;;;;28.40;15.23;;;3.70;99.90;;;;;;5055483;28;20191;-55
2020/12/20 03:53:39;;;;;;;24.50;15.03;;;3.70;99.90;;;;;;5057038;28;20174;-59
2020/12/20 03:56:08;;;;;;;20.47;14.33;;;3.70;99.90;;;;;;5056387;28;20871;-55
2020/12/20 03:58:34;;;;;;;20.87;13.10;;;3.70;99.90;;;;;;5056670;28;20659;-54
2020/12/20 04:00:59;;;;;;;19.30;12.53;;;3.60;99.90;;;;;;5056352;28;20463;-58
2020/12/20 04:03:25;;;;;;;16.03;10.40;;;3.70;99.90;;;;;;5072913;28;20230;-58
2020/12/20 04:05:51;;;;;;;15.20;9.57;;;3.70;99.90;;;;;;5056530;28;20687;-57
2020/12/20 04:08:16;;;;;;;15.40;9.97;;;3.70;99.90;;;;;;5056886;28;20175;-57
2020/12/20 04:10:42;;;;;;;18.20;11.00;;;3.70;99.90;;;;;;5055210;28;20235;-58
2020/12/20 04:13:07;;;;;;;14.80;10.20;;;3.70;99.90;;;;;;5039141;28;20197;-58
2020/12/20 04:15:34;;;;;;;15.00;10.50;;;3.60;99.90;;;;;;5046011;28;20524;-54
2020/12/20 04:17:59;;;;;;;14.40;9.23;;;3.60;99.90;;;;;;5056996;28;20178;-58
2020/12/20 04:20:25;;;;;;;16.43;10.30;;;3.60;99.90;;;;;;5055546;28;20464;-58
2020/12/20 04:22:51;;;;;;;15.70;10.13;;;3.70;99.90;;;;;;5053845;28;20206;-58
2020/12/20 04:25:16;;;;;;;15.10;8.23;;;3.60;99.90;;;;;;5056579;28;20176;-53
2020/12/20 04:27:42;;;;;;;11.97;8.70;;;3.60;99.90;;;;;;5071780;28;20178;-59
2020/12/20 04:30:08;;;;;;;16.80;10.23;;;3.70;99.90;;;;;;5056422;28;20575;-54
2020/12/20 04:32:34;;;;;;;15.90;9.80;;;3.70;99.90;;;;;;5056474;28;20174;-56
2020/12/20 04:34:59;;;;;;;16.73;10.47;;;3.60;99.90;;;;;;5054861;28;20178;-53
2020/12/20 04:37:25;;;;;;;16.70;10.70;;;3.60;99.90;;;;;;5053963;28;20447;-58
2020/12/20 04:39:51;;;;;;;14.87;9.63;;;3.70;99.90;;;;;;5054776;28;20495;-57
2020/12/20 04:42:16;;;;;;;16.27;10.50;;;3.70;99.90;;;;;;5054506;28;20196;-56
2020/12/20 04:44:42;;;;;;;14.43;9.87;;;3.70;99.90;;;;;;5052219;28;20204;-57
2020/12/20 04:47:10;;;;;;;14.87;9.23;;;3.70;99.90;;;;;;5040222;28;20219;-53
2020/12/20 04:49:38;;;;;;;11.33;9.40;;;3.60;99.90;;;;;;5040918;28;20452;-57
2020/12/20 04:52:04;;;;;;;15.70;8.20;;;3.60;99.90;;;;;;5051008;28;20760;-54
2020/12/20 04:54:32;;;;;;;15.97;10.67;;;3.60;99.90;;;;;;5056562;28;20420;-54
2020/12/20 04:56:57;;;;;;;12.30;9.23;;;3.60;99.90;;;;;;5054660;28;20519;-54
2020/12/20 04:59:25;;;;;;;13.70;10.00;;;3.60;99.90;;;;;;5056255;28;20521;-58
2020/12/20 05:01:50;;;;;;;13.43;8.53;;;3.60;99.90;;;;;;5055188;28;20207;-54
2020/12/20 05:04:16;;;;;;;12.90;7.63;;;3.60;99.90;;;;;;5071685;28;20748;-57
2020/12/20 05:06:41;;;;;;;12.87;8.90;;;3.60;99.90;;;;;;5056093;28;20229;-53
2020/12/20 05:09:08;;;;;;;14.23;9.27;;;3.70;99.90;;;;;;5054671;28;20184;-54
2020/12/20 05:11:36;;;;;;;13.07;9.43;;;3.70;99.90;;;;;;5055214;28;20193;-54
2020/12/20 05:14:03;;;;;;;15.77;10.73;;;3.60;99.90;;;;;;5056190;28;20448;-54
2020/12/20 05:16:36;;;;;;;12.77;8.63;;;3.70;99.90;;;;;;5055115;28;20466;-58
2020/12/20 05:19:03;;;;;;;17.60;10.97;;;3.70;99.90;;;;;;5055847;28;20417;-54
2020/12/20 05:21:29;;;;;;;15.00;9.60;;;3.60;99.90;;;;;;5055717;28;20484;-54
2020/12/20 05:23:56;;;;;;;15.70;10.00;;;3.60;99.90;;;;;;5056077;28;20415;-53
2020/12/20 05:26:31;;;;;;;15.27;8.93;;;3.70;99.90;;;;;;5054797;28;20448;-57
2020/12/20 05:29:11;;;;;;;14.67;10.33;;;3.70;99.90;;;;;;5055117;28;20523;-54
2020/12/20 05:31:38;;;;;;;14.27;9.93;;;3.70;99.90;;;;;;5053324;28;20449;-53
2020/12/20 05:34:04;;;;;;;13.23;9.87;;;3.70;99.90;;;;;;5070974;28;20436;-53
2020/12/20 05:36:31;;;;;;;13.43;9.80;;;3.70;99.90;;;;;;5055207;28;20917;-54
2020/12/20 05:39:19;;;;;;;15.80;10.57;;;3.70;99.90;;;;;;5055423;28;20422;-54
2020/12/20 05:41:45;;;;;;;17.57;10.70;;;3.70;99.90;;;;;;5055228;28;20452;-57
2020/12/20 05:44:25;;;;;;;16.03;10.67;;;3.70;99.90;;;;;;5054093;28;20434;-58
2020/12/20 05:46:53;;;;;;;18.60;10.83;;;3.70;99.90;;;;;;5051869;28;20517;-55
2020/12/20 05:49:23;;;;;;;13.70;9.60;;;3.60;99.90;;;;;;5055173;28;20893;-55
2020/12/20 05:52:10;;;;;;;16.87;10.57;;;3.80;99.90;;;;;;5052640;28;20840;-56
2020/12/20 05:54:43;;;;;;;14.60;10.37;;;4.00;99.90;;;;;;5049570;28;20725;-55
2020/12/20 05:57:14;;;;;;;14.80;10.00;;;4.20;99.90;;;;;;5053432;28;20522;-54
2020/12/20 05:59:41;;;;;;;15.60;10.30;;;4.10;99.90;;;;;;5054587;28;20784;-55
2020/12/20 06:02:08;;;;;;;14.83;11.13;;;4.00;99.90;;;;;;5054206;28;20458;-55
2020/12/20 06:04:35;;;;;;;15.10;10.57;;;3.90;99.90;;;;;;5054326;28;20428;-57
2020/12/20 06:07:01;;;;;;;13.67;9.93;;;3.80;99.90;;;;;;5054971;28;20508;-56
2020/12/20 06:09:29;;;;;;;15.80;10.10;;;3.80;99.90;;;;;;5054911;28;20444;-57
2020/12/20 06:11:57;;;;;;;15.73;11.07;;;3.80;99.90;;;;;;5054845;28;20427;-54
2020/12/20 06:14:26;;;;;;;13.97;10.10;;;3.70;99.90;;;;;;5055085;28;20497;-56
2020/12/20 06:17:14;;;;;;;17.37;10.90;;;3.70;99.90;;;;;;5054144;28;20449;-53
2020/12/20 06:20:03;;;;;;;16.17;11.30;;;3.60;99.90;;;;;;5054508;28;20903;-56
2020/12/20 06:22:33;;;;;;;15.30;10.77;;;3.60;99.90;;;;;;5054600;28;20593;-54
2020/12/20 06:25:08;;;;;;;13.70;9.83;;;3.60;99.90;;;;;;5053993;28;20402;-55
2020/12/20 06:27:35;;;;;;;14.80;10.67;;;3.60;99.90;;;;;;5038544;28;20461;-54
2020/12/20 06:30:06;;;;;;;19.20;11.10;;;3.60;99.90;;;;;;5053645;28;20439;-55
2020/12/20 06:32:37;;;;;;;15.93;10.90;;;3.60;99.90;;;;;;5054423;28;20450;-55
2020/12/20 06:35:10;;;;;;;14.90;10.10;;;3.70;99.90;;;;;;5054284;28;20415;-57
2020/12/20 06:37:41;;;;;;;13.23;9.30;;;3.70;99.90;;;;;;5054192;28;20424;-57
2020/12/20 06:40:06;;;;;;;13.73;9.53;;;3.80;99.90;;;;;;5053540;28;20439;-55
2020/12/20 06:42:43;;;;;;;17.33;10.10;;;3.90;99.90;;;;;;5054027;28;20943;-56
2020/12/20 06:45:15;;;;;;;15.77;10.40;;;3.80;99.90;;;;;;5053703;28;20625;-55
2020/12/20 06:47:52;;;;;;;15.60;10.30;;;3.80;99.90;;;;;;5047003;28;20467;-54
2020/12/20 06:50:38;;;;;;;15.03;10.10;;;3.70;99.90;;;;;;5052714;28;20439;-56
2020/12/20 06:53:05;;;;;;;16.83;10.63;;;3.70;99.90;;;;;;5043730;28;20511;-55
2020/12/20 06:55:31;;;;;;;16.20;10.13;;;3.70;99.90;;;;;;5061516;28;20436;-56
2020/12/20 06:58:04;;;;;;;14.20;9.87;;;3.70;99.90;;;;;;5047571;28;20985;-56
2020/12/20 07:00:42;;;;;;;14.87;10.17;;;3.80;99.90;;;;;;5053823;28;20884;-55
2020/12/20 07:03:10;;;;;;;17.97;10.67;;;3.70;99.90;;;;;;5053912;28;20460;-55
2020/12/20 07:05:40;;;;;;;16.07;10.43;;;3.70;99.90;;;;;;5053835;28;20445;-56
2020/12/20 07:08:30;;;;;;;15.67;10.07;;;3.80;99.90;;;;;;5055093;28;20454;-55
2020/12/20 07:10:57;;;;;;;15.23;10.10;;;3.80;99.90;;;;;;5056851;28;20589;-55
2020/12/20 07:13:43;;;;;;;16.30;11.33;;;3.70;99.90;;;;;;5045413;28;20433;-56
2020/12/20 07:16:20;;;;;;;15.17;10.23;;;3.70;99.90;;;;;;5050375;28;20441;-54
2020/12/20 07:19:02;;;;;;;15.73;10.23;;;3.70;99.90;;;;;;5060459;28;20844;-55
2020/12/20 07:21:28;;;;;;;12.80;10.37;;;3.80;99.90;;;;;;5066819;28;20530;-54
2020/12/20 07:24:04;;;;;;;16.40;9.90;;;3.80;99.90;;;;;;5070369;28;20473;-54
2020/12/20 07:26:30;;;;;;;15.43;10.63;;;3.80;99.90;;;;;;5059575;28;20167;-56
2020/12/20 07:29:00;;;;;;;16.80;11.10;;;3.80;99.90;;;;;;5060100;28;20447;-55
2020/12/20 07:31:25;;;;;;;15.30;9.97;;;3.90;99.90;;;;;;5059745;28;20674;-55
2020/12/20 07:33:52;;;;;;;14.73;10.30;;;3.90;99.90;;;;;;5060423;28;20462;-57
2020/12/20 07:36:20;;;;;;;15.43;10.00;;;3.90;99.90;;;;;;5060015;28;20169;-57
2020/12/20 07:38:46;;;;;;;14.97;9.57;;;4.00;99.90;;;;;;5060714;28;20433;-55
2020/12/20 07:41:12;;;;;;;11.67;9.30;;;4.00;99.90;;;;;;5060510;28;20748;-55
2020/12/20 07:43:38;;;;;;;12.03;9.00;;;4.00;99.90;;;;;;5060519;28;20534;-57
2020/12/20 07:46:07;;;;;;;13.20;9.20;;;4.10;99.90;;;;;;5058760;28;20465;-61
2020/12/20 07:48:32;;;;;;;14.53;9.73;;;4.20;99.90;;;;;;5060188;28;20450;-56
2020/12/20 07:51:10;;;;;;;14.63;10.37;;;4.20;99.90;;;;;;5059909;28;20466;-54
2020/12/20 07:53:42;;;;;;;15.20;10.00;;;4.30;99.90;;;;;;5060309;28;20177;-54
2020/12/20 07:56:08;;;;;;;13.67;11.07;;;4.30;99.90;;;;;;5060327;28;20854;-56
2020/12/20 07:58:34;;;;;;;14.03;9.83;;;4.30;99.90;;;;;;5057609;28;20513;-54
2020/12/20 08:01:05;;;;;;;12.80;10.00;;;4.40;99.90;;;;;;5059287;28;20199;-56
2020/12/20 08:03:31;;;;;;;15.03;10.70;;;4.30;99.90;;;;;;5060066;28;20467;-56
2020/12/20 08:06:04;;;;;;;13.37;10.30;;;4.40;99.90;;;;;;5059892;28;20430;-56
2020/12/20 08:08:31;;;;;;;14.40;10.17;;;4.40;99.90;;;;;;5059833;28;20884;-58
2020/12/20 08:10:56;;;;;;;14.87;9.83;;;4.50;99.90;;;;;;5060217;28;20506;-55
2020/12/20 08:13:22;;;;;;;13.40;9.60;;;4.60;99.90;;;;;;5060130;28;20884;-57
2020/12/20 08:15:48;;;;;;;15.93;10.70;;;4.60;99.90;;;;;;5060150;28;20703;-57
2020/12/20 08:18:13;;;;;;;17.53;11.03;;;4.60;99.90;;;;;;5059347;28;20637;-57
2020/12/20 08:20:40;;;;;;;13.73;9.70;;;4.70;99.90;;;;;;5055851;28;20212;-59
2020/12/20 08:23:06;;;;;;;12.40;9.77;;;4.70;99.90;;;;;;5045621;28;20207;-56
2020/12/20 08:25:32;;;;;;;13.50;9.40;;;4.70;99.90;;;;;;5051360;28;20510;-54
2020/12/20 08:27:57;;;;;;;12.40;9.20;;;4.70;99.90;;;;;;5056507;28;20433;-57
2020/12/20 08:30:23;;;;;;;14.30;10.40;;;4.70;99.90;;;;;;5056906;28;20503;-57
2020/12/20 08:32:48;;;;;;;14.60;11.27;;;4.70;99.90;;;;;;5056534;28;20618;-54
2020/12/20 08:35:17;;;;;;;13.10;9.60;;;4.80;99.90;;;;;;5055644;28;20187;-54
2020/12/20 08:37:50;;;;;;;11.50;9.40;;;4.80;99.90;;;;;;5056869;28;20203;-54
2020/12/20 08:40:17;;;;;;;14.93;10.03;;;4.80;99.90;;;;;;5056607;28;20418;-54
2020/12/20 08:42:46;;;;;;;14.00;10.60;;;4.90;99.90;;;;;;5055054;28;20486;-54
2020/12/20 08:45:20;;;;;;;14.80;10.53;;;5.00;99.90;;;;;;5056285;28;20437;-57
2020/12/20 08:47:47;;;;;;;15.20;10.57;;;4.90;99.90;;;;;;5056121;28;20524;-54
2020/12/20 08:50:13;;;;;;;13.57;10.17;;;5.00;99.90;;;;;;5055738;28;20517;-54
2020/12/20 08:52:39;;;;;;;14.73;10.03;;;5.00;99.90;;;;;;5056217;28;20430;-54
2020/12/20 08:55:06;;;;;;;13.63;9.97;;;5.10;99.90;;;;;;5056214;28;20474;-56
2020/12/20 08:57:35;;;;;;;14.03;10.30;;;5.10;99.90;;;;;;5055100;28;20184;-57
2020/12/20 09:00:15;;;;;;;14.13;10.57;;;5.00;99.90;;;;;;5046113;28;20816;-59
2020/12/20 09:02:41;;;;;;;15.60;10.70;;;5.10;99.90;;;;;;5055201;28;20496;-56
2020/12/20 09:05:11;;;;;;;15.00;10.90;;;5.10;99.90;;;;;;5055066;28;20422;-56
2020/12/20 09:07:42;;;;;;;15.77;11.73;;;5.20;99.90;;;;;;5055926;28;20408;-55
2020/12/20 09:10:19;;;;;;;16.20;11.30;;;5.20;99.90;;;;;;5055769;28;20433;-62
2020/12/20 09:12:48;;;;;;;16.70;11.47;;;5.30;99.90;;;;;;5054283;28;20426;-55
2020/12/20 09:15:14;;;;;;;14.10;11.50;;;5.30;94.40;;;;;;5055506;28;20525;-56
2020/12/20 09:17:51;;;;;;;13.13;10.50;;;5.30;91.10;;;;;;5055755;28;21001;-55
2020/12/20 09:20:19;;;;;;;11.60;9.13;;;5.40;88.70;;;;;;5055821;28;20879;-56
2020/12/20 09:22:56;;;;;;;15.90;11.37;;;5.30;81.60;;;;;;5053870;28;20592;-56
2020/12/20 09:25:37;;;;;;;15.13;10.67;;;5.40;78.50;;;;;;5055634;28;20419;-56
2020/12/20 09:28:10;;;;;;;14.97;10.03;;;5.30;80.80;;;;;;5054855;28;20441;-57
2020/12/20 09:30:42;;;;;;;11.77;9.30;;;5.30;83.30;;;;;;5054991;28;20418;-57
2020/12/20 09:33:30;;;;;;;13.33;10.97;;;5.40;79.40;;;;;;5055555;28;20743;-56
2020/12/20 09:36:14;;;;;;;11.90;8.67;;;5.50;65.10;;;;;;5054915;28;20438;-55
2020/12/20 09:38:42;;;;;;;14.40;10.17;;;5.50;58.70;;;;;;5055045;28;20427;-57
2020/12/20 09:41:13;;;;;;;12.47;9.80;;;5.60;55.50;;;;;;5054273;28;20443;-55
2020/12/20 09:43:42;;;;;;;15.93;10.77;;;5.50;55.10;;;;;;5048325;28;20450;-57
2020/12/20 09:46:09;;;;;;;14.70;9.63;;;5.60;53.10;;;;;;5050330;28;20459;-55
2020/12/20 09:48:35;;;;;;;12.77;9.97;;;5.60;47.10;;;;;;5055140;28;20506;-55
2020/12/20 09:51:01;;;;;;;12.93;10.70;;;5.70;44.30;;;;;;5051500;28;20552;-57
2020/12/20 09:53:26;;;;;;;14.43;11.90;;;5.70;35.50;;;;;;5035046;28;20216;-56
2020/12/20 09:55:52;;;;;;;15.40;11.07;;;5.80;33.60;;;;;;5053933;28;20211;-58
2020/12/20 09:58:18;;;;;;;11.70;9.37;;;5.80;28.10;;;;;;5054192;28;20666;-57
2020/12/20 10:00:44;;;;;;;12.73;9.90;;;5.90;23.20;;;;;;5055135;28;20209;-57
2020/12/20 10:03:11;;;;;;;12.27;9.63;;;6.00;17.70;;;;;;5054769;28;20668;-56
2020/12/20 10:05:39;;;;;;;15.83;9.73;;;6.00;9.10;;;;;;5054812;28;20425;-57
2020/12/20 10:08:06;;;;;;;11.00;8.83;;;6.00;10.50;;;;;;5054768;28;20426;-56
2020/12/20 10:10:32;;;;;;;13.63;9.87;;;6.00;8.20;;;;;;5054384;28;20461;-56
2020/12/20 10:12:58;;;;;;;11.47;9.47;;;6.10;3.70;;;;;;5054697;28;20896;-57
2020/12/20 10:15:24;;;;;;;12.70;9.80;;;6.10;3.10;;;;;;5054364;28;20237;-57
2020/12/20 10:17:50;;;;;;;12.70;9.73;;;6.00;4.00;;;;;;5054768;28;20430;-58
2020/12/20 10:20:16;;;;;;;11.63;9.50;;;6.00;2.40;;;;;;5053631;28;20505;-58
2020/12/20 10:22:42;;;;;;;12.50;10.23;;;6.00;2.20;;;;;;5054475;28;20471;-55
2020/12/20 10:25:08;;;;;;;11.50;9.50;;;6.00;1.00;;;;;;5053254;28;20433;-57
2020/12/20 10:27:33;;;;;;;14.10;10.50;;;6.00;2.10;;;;;;5054243;28;20573;-58
2020/12/20 10:29:59;;;;;;;14.57;10.87;;;6.00;2.30;;;;;;5054755;28;20263;-55
2020/12/20 10:32:25;;;;;;;15.03;9.80;;;6.10;1.00;;;;;;5054436;28;20176;-58
2020/12/20 10:34:50;;;;;;;12.13;10.70;;;5.50;1.00;;;;;;5052629;28;20553;-58
2020/12/20 10:37:16;;;;;;;11.30;9.63;;;6.10;1.00;;;;;;5054130;28;20250;-55
2020/12/20 10:39:42;;;;;;;12.87;10.83;;;6.20;1.00;;;;;;5054372;28;20657;-55
2020/12/20 10:42:11;;;;;;;12.87;9.10;;;6.20;1.00;;;;;;5053876;28;20204;-55
2020/12/20 10:44:37;;;;;;;13.00;9.80;;;6.20;1.00;;;;;;5052506;28;20468;-59
2020/12/20 10:47:04;;;;;;;11.17;9.50;;;6.20;1.00;;;;;;5052536;28;20474;-55
2020/12/20 10:49:30;;;;;;;11.27;8.87;;;6.30;1.00;;;;;;5054473;28;20234;-58
2020/12/20 10:51:55;;;;;;;14.43;10.50;;;6.40;1.00;;;;;;5054049;28;20903;-55
2020/12/20 10:54:23;;;;;;;10.27;8.67;;;6.40;1.00;;;;;;5054053;28;20262;-55
2020/12/20 10:56:49;;;;;;;10.70;9.10;;;6.50;1.00;;;;;;5054141;28;20199;-56
2020/12/20 10:59:15;;;;;;;13.10;10.30;;;6.50;1.00;;;;;;5054148;28;20426;-55
2020/12/20 11:01:41;;;;;;;14.63;9.90;;;6.60;1.00;;;;;;5054295;28;20219;-59
2020/12/20 11:04:07;;;;;;;12.80;9.80;;;6.50;1.00;;;;;;5053931;28;20454;-55
2020/12/20 11:06:32;;;;;;;14.53;11.27;;;6.60;1.00;;;;;;5054234;28;20173;-55
2020/12/20 11:08:58;;;;;;;12.63;10.53;;;6.60;1.00;;;;;;5053032;28;20278;-59
2020/12/20 11:11:31;;;;;;;11.40;10.20;;;6.80;1.00;;;;;;5053974;28;20176;-58
2020/12/20 11:13:57;;;;;;;11.50;9.23;;;6.90;1.00;;;;;;5053858;28;20206;-55
2020/12/20 11:16:23;;;;;;;12.40;10.80;;;6.90;1.00;;;;;;5053884;28;20510;-58
2020/12/20 11:18:49;;;;;;;12.10;10.90;;;6.90;1.00;;;;;;5053992;28;20458;-56
2020/12/20 11:21:16;;;;;;;12.80;11.53;;;6.80;1.00;;;;;;5053871;28;20175;-55
2020/12/20 11:23:43;;;;;;;14.80;12.43;;;6.80;1.00;;;;;;5053861;28;20204;-58
2020/12/20 11:26:17;;;;;;;12.83;10.80;;;6.70;1.00;;;;;;5053848;28;20856;-55
2020/12/20 11:28:44;;;;;;;10.87;9.70;;;6.80;1.00;;;;;;5054228;28;20407;-59
2020/12/20 11:31:15;;;;;;;18.00;11.27;;;6.80;1.00;;;;;;5053026;28;20434;-58
2020/12/20 11:33:41;;;;;;;13.37;11.23;;;6.70;1.00;;;;;;5053818;28;20430;-56
2020/12/20 11:36:07;;;;;;;12.37;10.50;;;6.60;1.00;;;;;;5053871;28;20947;-56
2020/12/20 11:38:34;;;;;;;14.10;12.10;;;6.70;1.00;;;;;;5054017;28;20422;-58
2020/12/20 11:41:00;;;;;;;12.80;11.10;;;6.80;1.00;;;;;;5053760;28;20437;-60
2020/12/20 11:43:26;;;;;;;14.80;11.70;;;6.80;1.00;;;;;;5053675;28;20473;-59
2020/12/20 11:45:52;;;;;;;12.37;11.07;;;6.80;1.00;;;;;;5053606;28;20903;-59
2020/12/20 11:48:18;;;;;;;14.23;11.17;;;6.70;1.00;;;;;;5053529;28;20298;-58
2020/12/20 11:50:43;;;;;;;14.53;12.00;;;6.70;1.00;;;;;;5053659;28;20230;-58
2020/12/20 11:53:09;;;;;;;15.67;12.80;;;6.70;1.00;;;;;;5053680;28;20184;-59
2020/12/20 11:55:35;;;;;;;11.87;10.50;;;6.80;1.00;;;;;;5056317;28;20610;-58
2020/12/20 11:58:01;;;;;;;14.63;11.20;;;6.80;1.00;;;;;;5057429;28;20418;-59
2020/12/20 12:00:28;;;;;;;12.90;11.60;;;6.70;1.00;;;;;;5057410;28;20311;-59
2020/12/20 12:02:54;;;;;;;12.77;11.00;;;6.70;1.00;;;;;;5057164;28;20454;-58
2020/12/20 12:05:20;;;;;;;11.97;10.70;;;6.70;1.00;;;;;;5057288;28;20721;-58
2020/12/20 12:07:46;;;;;;;15.93;11.57;;;6.70;1.00;;;;;;5057083;28;20480;-58
2020/12/20 12:10:12;;;;;;;14.80;11.63;;;6.80;1.00;;;;;;5057168;28;20946;-58
2020/12/20 12:12:38;;;;;;;13.30;11.90;;;6.80;1.00;;;;;;5057415;28;20437;-59
2020/12/20 12:15:04;;;;;;;13.10;11.70;;;6.80;1.00;;;;;;5057431;28;20198;-59
2020/12/20 12:17:29;;;;;;;13.57;11.50;;;6.80;1.00;;;;;;5056884;28;20415;-59
2020/12/20 12:19:55;;;;;;;13.80;11.33;;;6.70;1.00;;;;;;5057102;28;20418;-59
2020/12/20 12:22:22;;;;;;;13.63;11.57;;;6.80;1.00;;;;;;5057191;28;20199;-58
2020/12/20 12:24:47;;;;;;;14.87;13.27;;;6.60;1.00;;;;;;5056225;28;20434;-55
2020/12/20 12:27:13;;;;;;;15.07;13.00;;;6.50;1.00;;;;;;5056929;28;20422;-57
2020/12/20 12:29:39;;;;;;;15.40;12.63;;;6.50;1.00;;;;;;5057111;28;20177;-56
2020/12/20 12:32:05;;;;;;;15.57;12.67;;;6.50;1.00;;;;;;5056672;28;20195;-55
2020/12/20 12:34:31;;;;;;;14.90;12.53;;;6.60;1.00;;;;;;5056012;28;20439;-58
2020/12/20 12:36:56;;;;;;;16.60;12.93;;;6.60;1.00;;;;;;5056158;28;20203;-57
2020/12/20 12:39:22;;;;;;;14.17;12.50;;;6.50;1.00;;;;;;5056709;28;20208;-56
2020/12/20 12:41:47;;;;;;;17.10;12.07;;;6.50;1.00;;;;;;5056507;28;20179;-56
2020/12/20 12:44:13;;;;;;;15.60;12.50;;;6.60;1.00;;;;;;5056588;28;20176;-57